sensor_id;sensor_type;location;lat;lon;timestamp;P1;durP1;ratioP1;P2;durP2;ratioP2
76063;SDS011;64762;52.006;8.424;2022-12-05T00:00:52;29.77;;;11.00;;
76063;SDS011;64762;52.006;8.424;2022-12-05T00:03:18;22.45;;;10.35;;
76063;SDS011;64762;52.006;8.424;2022-12-05T00:05:44;23.50;;;11.07;;
76063;SDS011;64762;52.006;8.424;2022-12-05T00:08:10;23.70;;;10.83;;
76063;SDS011;64762;52.006;8.424;2022-12-05T00:10:35;20.90;;;8.77;;
76063;SDS011;64762;52.006;8.424;2022-12-05T00:13:01;20.98;;;10.00;;
76063;SDS011;64762;52.006;8.424;2022-12-05T00:15:26;24.10;;;10.53;;
76063;SDS011;64762;52.006;8.424;2022-12-05T00:17:52;22.83;;;10.30;;
76063;SDS011;64762;52.006;8.424;2022-12-05T00:20:17;15.17;;;7.27;;
76063;SDS011;64762;52.006;8.424;2022-12-05T00:22:42;18.95;;;9.23;;
76063;SDS011;64762;52.006;8.424;2022-12-05T00:25:08;19.70;;;10.50;;
76063;SDS011;64762;52.006;8.424;2022-12-05T00:27:33;17.52;;;8.18;;
76063;SDS011;64762;52.006;8.424;2022-12-05T00:29:59;19.53;;;8.37;;
76063;SDS011;64762;52.006;8.424;2022-12-05T00:32:25;25.92;;;9.68;;
76063;SDS011;64762;52.006;8.424;2022-12-05T00:34:52;28.02;;;10.75;;
76063;SDS011;64762;52.006;8.424;2022-12-05T00:37:17;13.87;;;6.90;;
76063;SDS011;64762;52.006;8.424;2022-12-05T00:39:42;18.37;;;8.33;;
76063;SDS011;64762;52.006;8.424;2022-12-05T00:42:08;18.77;;;9.17;;
76063;SDS011;64762;52.006;8.424;2022-12-05T00:44:33;20.33;;;7.47;;
76063;SDS011;64762;52.006;8.424;2022-12-05T00:46:58;20.10;;;9.43;;
76063;SDS011;64762;52.006;8.424;2022-12-05T00:49:23;17.03;;;7.30;;
76063;SDS011;64762;52.006;8.424;2022-12-05T00:51:49;22.00;;;8.70;;
76063;SDS011;64762;52.006;8.424;2022-12-05T00:54:15;19.77;;;8.27;;
76063;SDS011;64762;52.006;8.424;2022-12-05T00:56:41;10.05;;;5.78;;
76063;SDS011;64762;52.006;8.424;2022-12-05T00:59:07;12.45;;;6.05;;
76063;SDS011;64762;52.006;8.424;2022-12-05T01:01:37;17.02;;;7.88;;
76063;SDS011;64762;52.006;8.424;2022-12-05T01:04:08;15.07;;;6.80;;
76063;SDS011;64762;52.006;8.424;2022-12-05T01:06:35;15.70;;;7.60;;
76063;SDS011;64762;52.006;8.424;2022-12-05T01:09:01;13.00;;;7.10;;
76063;SDS011;64762;52.006;8.424;2022-12-05T01:11:27;11.25;;;5.85;;
76063;SDS011;64762;52.006;8.424;2022-12-05T01:13:52;17.17;;;7.43;;
76063;SDS011;64762;52.006;8.424;2022-12-05T01:16:23;13.82;;;6.88;;
76063;SDS011;64762;52.006;8.424;2022-12-05T01:18:50;16.90;;;8.60;;
76063;SDS011;64762;52.006;8.424;2022-12-05T01:21:16;11.15;;;6.15;;
76063;SDS011;64762;52.006;8.424;2022-12-05T01:23:41;17.75;;;7.40;;
76063;SDS011;64762;52.006;8.424;2022-12-05T01:26:08;10.90;;;5.32;;
76063;SDS011;64762;52.006;8.424;2022-12-05T01:28:35;13.70;;;6.43;;
76063;SDS011;64762;52.006;8.424;2022-12-05T01:31:16;16.77;;;8.00;;
76063;SDS011;64762;52.006;8.424;2022-12-05T01:33:49;10.73;;;5.70;;
76063;SDS011;64762;52.006;8.424;2022-12-05T01:36:15;12.95;;;6.97;;
76063;SDS011;64762;52.006;8.424;2022-12-05T01:38:41;12.40;;;6.22;;
76063;SDS011;64762;52.006;8.424;2022-12-05T01:41:08;9.32;;;4.70;;
76063;SDS011;64762;52.006;8.424;2022-12-05T01:46:20;9.93;;;5.07;;
76063;SDS011;64762;52.006;8.424;2022-12-05T01:48:45;15.43;;;5.43;;
76063;SDS011;64762;52.006;8.424;2022-12-05T01:51:11;18.67;;;7.87;;
76063;SDS011;64762;52.006;8.424;2022-12-05T01:53:36;14.73;;;7.47;;
76063;SDS011;64762;52.006;8.424;2022-12-05T01:56:01;12.52;;;6.90;;
76063;SDS011;64762;52.006;8.424;2022-12-05T01:58:28;19.92;;;8.02;;
76063;SDS011;64762;52.006;8.424;2022-12-05T02:00:57;14.40;;;7.68;;
76063;SDS011;64762;52.006;8.424;2022-12-05T02:03:22;14.93;;;6.47;;
76063;SDS011;64762;52.006;8.424;2022-12-05T02:05:49;18.60;;;9.07;;
76063;SDS011;64762;52.006;8.424;2022-12-05T02:08:15;17.67;;;8.13;;
76063;SDS011;64762;52.006;8.424;2022-12-05T02:10:42;16.07;;;6.43;;
76063;SDS011;64762;52.006;8.424;2022-12-05T02:24:31;18.58;;;8.57;;
76063;SDS011;64762;52.006;8.424;2022-12-05T02:29:47;18.77;;;8.68;;
76063;SDS011;64762;52.006;8.424;2022-12-05T02:32:30;19.10;;;8.80;;
76063;SDS011;64762;52.006;8.424;2022-12-05T02:35:11;11.10;;;5.57;;
76063;SDS011;64762;52.006;8.424;2022-12-05T02:37:43;16.95;;;8.38;;
76063;SDS011;64762;52.006;8.424;2022-12-05T02:40:25;16.00;;;7.05;;
76063;SDS011;64762;52.006;8.424;2022-12-05T02:43:01;14.35;;;7.13;;
76063;SDS011;64762;52.006;8.424;2022-12-05T02:45:30;19.80;;;8.75;;
76063;SDS011;64762;52.006;8.424;2022-12-05T02:47:56;19.13;;;8.23;;
76063;SDS011;64762;52.006;8.424;2022-12-05T02:50:24;17.23;;;7.97;;
76063;SDS011;64762;52.006;8.424;2022-12-05T02:52:53;14.43;;;7.85;;
76063;SDS011;64762;52.006;8.424;2022-12-05T02:55:20;15.13;;;7.90;;
76063;SDS011;64762;52.006;8.424;2022-12-05T02:57:49;16.95;;;7.72;;
76063;SDS011;64762;52.006;8.424;2022-12-05T03:00:15;16.63;;;7.72;;
76063;SDS011;64762;52.006;8.424;2022-12-05T03:02:41;15.82;;;8.40;;
76063;SDS011;64762;52.006;8.424;2022-12-05T03:07:39;14.02;;;6.93;;
76063;SDS011;64762;52.006;8.424;2022-12-05T03:10:05;14.10;;;7.43;;
76063;SDS011;64762;52.006;8.424;2022-12-05T03:12:32;14.90;;;7.20;;
76063;SDS011;64762;52.006;8.424;2022-12-05T03:15:08;11.65;;;5.60;;
76063;SDS011;64762;52.006;8.424;2022-12-05T03:18:09;18.88;;;8.40;;
76063;SDS011;64762;52.006;8.424;2022-12-05T03:23:07;9.73;;;4.68;;
76063;SDS011;64762;52.006;8.424;2022-12-05T03:26:04;13.80;;;7.07;;
76063;SDS011;64762;52.006;8.424;2022-12-05T03:31:13;15.73;;;7.85;;
76063;SDS011;64762;52.006;8.424;2022-12-05T03:33:42;13.80;;;6.47;;
76063;SDS011;64762;52.006;8.424;2022-12-05T03:36:13;12.95;;;6.70;;
76063;SDS011;64762;52.006;8.424;2022-12-05T03:38:44;13.93;;;7.47;;
76063;SDS011;64762;52.006;8.424;2022-12-05T03:41:14;13.20;;;7.05;;
76063;SDS011;64762;52.006;8.424;2022-12-05T03:46:23;15.40;;;7.18;;
76063;SDS011;64762;52.006;8.424;2022-12-05T03:48:53;15.40;;;7.07;;
76063;SDS011;64762;52.006;8.424;2022-12-05T03:51:51;13.98;;;6.72;;
76063;SDS011;64762;52.006;8.424;2022-12-05T03:54:43;11.23;;;6.30;;
76063;SDS011;64762;52.006;8.424;2022-12-05T03:59:43;14.85;;;7.07;;
76063;SDS011;64762;52.006;8.424;2022-12-05T04:02:15;15.80;;;7.53;;
76063;SDS011;64762;52.006;8.424;2022-12-05T04:04:53;13.70;;;6.97;;
76063;SDS011;64762;52.006;8.424;2022-12-05T04:07:20;14.57;;;7.85;;
76063;SDS011;64762;52.006;8.424;2022-12-05T04:09:47;15.68;;;6.97;;
76063;SDS011;64762;52.006;8.424;2022-12-05T04:12:18;13.13;;;6.38;;
76063;SDS011;64762;52.006;8.424;2022-12-05T04:14:48;12.65;;;6.07;;
76063;SDS011;64762;52.006;8.424;2022-12-05T04:17:36;15.27;;;7.47;;
76063;SDS011;64762;52.006;8.424;2022-12-05T04:20:17;16.17;;;6.80;;
76063;SDS011;64762;52.006;8.424;2022-12-05T04:23:06;16.70;;;7.28;;
76063;SDS011;64762;52.006;8.424;2022-12-05T04:25:35;11.93;;;6.25;;
76063;SDS011;64762;52.006;8.424;2022-12-05T04:33:39;18.63;;;6.90;;
76063;SDS011;64762;52.006;8.424;2022-12-05T04:38:41;12.63;;;6.50;;
76063;SDS011;64762;52.006;8.424;2022-12-05T04:41:11;14.57;;;6.53;;
76063;SDS011;64762;52.006;8.424;2022-12-05T04:43:39;16.60;;;7.50;;
76063;SDS011;64762;52.006;8.424;2022-12-05T04:46:07;14.10;;;7.90;;
76063;SDS011;64762;52.006;8.424;2022-12-05T04:48:34;20.55;;;8.45;;
76063;SDS011;64762;52.006;8.424;2022-12-05T04:51:02;15.07;;;7.20;;
76063;SDS011;64762;52.006;8.424;2022-12-05T04:53:28;16.27;;;8.13;;
76063;SDS011;64762;52.006;8.424;2022-12-05T04:55:55;16.35;;;6.97;;
76063;SDS011;64762;52.006;8.424;2022-12-05T04:58:22;16.90;;;8.52;;
76063;SDS011;64762;52.006;8.424;2022-12-05T05:00:55;18.08;;;7.72;;
76063;SDS011;64762;52.006;8.424;2022-12-05T05:03:26;13.13;;;6.53;;
76063;SDS011;64762;52.006;8.424;2022-12-05T05:05:54;9.85;;;5.97;;
76063;SDS011;64762;52.006;8.424;2022-12-05T05:08:22;11.13;;;5.82;;
76063;SDS011;64762;52.006;8.424;2022-12-05T05:11:11;20.88;;;8.95;;
76063;SDS011;64762;52.006;8.424;2022-12-05T05:13:36;16.67;;;8.00;;
76063;SDS011;64762;52.006;8.424;2022-12-05T05:16:01;17.73;;;7.40;;
76063;SDS011;64762;52.006;8.424;2022-12-05T05:18:27;16.70;;;7.87;;
76063;SDS011;64762;52.006;8.424;2022-12-05T05:20:52;17.57;;;7.97;;
76063;SDS011;64762;52.006;8.424;2022-12-05T05:23:17;15.63;;;6.93;;
76063;SDS011;64762;52.006;8.424;2022-12-05T05:25:43;16.37;;;8.73;;
76063;SDS011;64762;52.006;8.424;2022-12-05T05:28:08;17.40;;;7.53;;
76063;SDS011;64762;52.006;8.424;2022-12-05T05:30:33;17.20;;;8.07;;
76063;SDS011;64762;52.006;8.424;2022-12-05T05:32:59;17.17;;;8.33;;
76063;SDS011;64762;52.006;8.424;2022-12-05T05:35:24;18.77;;;9.32;;
76063;SDS011;64762;52.006;8.424;2022-12-05T05:37:49;20.60;;;9.48;;
76063;SDS011;64762;52.006;8.424;2022-12-05T05:40:15;15.17;;;7.93;;
76063;SDS011;64762;52.006;8.424;2022-12-05T05:42:47;13.65;;;7.53;;
76063;SDS011;64762;52.006;8.424;2022-12-05T05:45:15;17.58;;;8.20;;
76063;SDS011;64762;52.006;8.424;2022-12-05T05:47:40;18.08;;;8.20;;
76063;SDS011;64762;52.006;8.424;2022-12-05T05:50:06;18.25;;;9.52;;
76063;SDS011;64762;52.006;8.424;2022-12-05T05:52:32;15.82;;;8.45;;
76063;SDS011;64762;52.006;8.424;2022-12-05T05:54:58;17.80;;;8.10;;
76063;SDS011;64762;52.006;8.424;2022-12-05T05:57:24;15.20;;;7.63;;
76063;SDS011;64762;52.006;8.424;2022-12-05T05:59:49;16.10;;;7.90;;
76063;SDS011;64762;52.006;8.424;2022-12-05T06:02:15;19.58;;;8.98;;
76063;SDS011;64762;52.006;8.424;2022-12-05T06:04:40;19.97;;;8.73;;
76063;SDS011;64762;52.006;8.424;2022-12-05T06:07:05;17.83;;;8.53;;
76063;SDS011;64762;52.006;8.424;2022-12-05T06:09:31;18.40;;;8.73;;
76063;SDS011;64762;52.006;8.424;2022-12-05T06:11:56;18.30;;;8.43;;
76063;SDS011;64762;52.006;8.424;2022-12-05T06:14:21;18.60;;;8.43;;
76063;SDS011;64762;52.006;8.424;2022-12-05T06:16:47;19.93;;;9.17;;
76063;SDS011;64762;52.006;8.424;2022-12-05T06:19:12;17.60;;;9.17;;
76063;SDS011;64762;52.006;8.424;2022-12-05T06:21:37;16.90;;;9.07;;
76063;SDS011;64762;52.006;8.424;2022-12-05T06:24:03;16.97;;;8.37;;
76063;SDS011;64762;52.006;8.424;2022-12-05T06:26:28;18.02;;;8.55;;
76063;SDS011;64762;52.006;8.424;2022-12-05T06:28:54;18.23;;;7.50;;
76063;SDS011;64762;52.006;8.424;2022-12-05T06:31:20;16.33;;;8.00;;
76063;SDS011;64762;52.006;8.424;2022-12-05T06:33:47;18.23;;;8.50;;
76063;SDS011;64762;52.006;8.424;2022-12-05T06:36:13;16.20;;;8.30;;
76063;SDS011;64762;52.006;8.424;2022-12-05T06:38:40;15.45;;;8.30;;
76063;SDS011;64762;52.006;8.424;2022-12-05T06:41:10;15.10;;;8.27;;
76063;SDS011;64762;52.006;8.424;2022-12-05T06:43:36;20.20;;;8.13;;
76063;SDS011;64762;52.006;8.424;2022-12-05T06:46:05;15.07;;;7.80;;
76063;SDS011;64762;52.006;8.424;2022-12-05T06:48:31;20.75;;;8.18;;
76063;SDS011;64762;52.006;8.424;2022-12-05T06:50:56;15.27;;;7.97;;
76063;SDS011;64762;52.006;8.424;2022-12-05T06:53:22;11.40;;;6.30;;
76063;SDS011;64762;52.006;8.424;2022-12-05T06:55:54;17.25;;;8.25;;
76063;SDS011;64762;52.006;8.424;2022-12-05T06:58:20;11.32;;;6.05;;
76063;SDS011;64762;52.006;8.424;2022-12-05T07:00:46;15.45;;;7.35;;
76063;SDS011;64762;52.006;8.424;2022-12-05T07:03:31;13.02;;;6.95;;
76063;SDS011;64762;52.006;8.424;2022-12-05T07:06:00;15.13;;;7.57;;
76063;SDS011;64762;52.006;8.424;2022-12-05T07:08:26;11.40;;;6.03;;
76063;SDS011;64762;52.006;8.424;2022-12-05T07:10:52;13.75;;;7.47;;
76063;SDS011;64762;52.006;8.424;2022-12-05T07:13:17;11.93;;;6.82;;
76063;SDS011;64762;52.006;8.424;2022-12-05T07:15:45;13.77;;;6.90;;
76063;SDS011;64762;52.006;8.424;2022-12-05T07:18:11;13.02;;;6.22;;
76063;SDS011;64762;52.006;8.424;2022-12-05T07:20:37;13.65;;;6.63;;
76063;SDS011;64762;52.006;8.424;2022-12-05T07:23:02;10.30;;;4.77;;
76063;SDS011;64762;52.006;8.424;2022-12-05T07:25:27;12.37;;;6.63;;
76063;SDS011;64762;52.006;8.424;2022-12-05T07:27:53;12.05;;;5.20;;
76063;SDS011;64762;52.006;8.424;2022-12-05T07:30:18;10.33;;;5.40;;
76063;SDS011;64762;52.006;8.424;2022-12-05T07:32:43;11.80;;;5.38;;
76063;SDS011;64762;52.006;8.424;2022-12-05T07:35:09;9.33;;;4.87;;
76063;SDS011;64762;52.006;8.424;2022-12-05T07:37:34;9.03;;;5.00;;
76063;SDS011;64762;52.006;8.424;2022-12-05T07:39:59;12.23;;;6.23;;
76063;SDS011;64762;52.006;8.424;2022-12-05T07:42:25;9.93;;;5.77;;
76063;SDS011;64762;52.006;8.424;2022-12-05T07:44:50;8.57;;;4.80;;
76063;SDS011;64762;52.006;8.424;2022-12-05T07:47:15;11.27;;;5.10;;
76063;SDS011;64762;52.006;8.424;2022-12-05T07:49:41;11.20;;;5.70;;
76063;SDS011;64762;52.006;8.424;2022-12-05T07:52:06;9.77;;;5.43;;
76063;SDS011;64762;52.006;8.424;2022-12-05T07:54:32;11.77;;;5.30;;
76063;SDS011;64762;52.006;8.424;2022-12-05T07:56:57;11.02;;;5.78;;
76063;SDS011;64762;52.006;8.424;2022-12-05T07:59:22;14.47;;;4.87;;
76063;SDS011;64762;52.006;8.424;2022-12-05T08:01:48;7.87;;;4.50;;
76063;SDS011;64762;52.006;8.424;2022-12-05T08:04:13;7.70;;;4.80;;
76063;SDS011;64762;52.006;8.424;2022-12-05T08:06:38;10.23;;;5.93;;
76063;SDS011;64762;52.006;8.424;2022-12-05T08:09:04;8.13;;;4.93;;
76063;SDS011;64762;52.006;8.424;2022-12-05T08:11:30;6.37;;;3.50;;
76063;SDS011;64762;52.006;8.424;2022-12-05T08:13:59;9.00;;;4.47;;
76063;SDS011;64762;52.006;8.424;2022-12-05T08:16:25;8.18;;;3.97;;
76063;SDS011;64762;52.006;8.424;2022-12-05T08:18:56;7.43;;;4.15;;
76063;SDS011;64762;52.006;8.424;2022-12-05T08:21:25;12.45;;;4.20;;
76063;SDS011;64762;52.006;8.424;2022-12-05T08:23:51;7.93;;;3.88;;
76063;SDS011;64762;52.006;8.424;2022-12-05T08:26:27;8.38;;;4.43;;
76063;SDS011;64762;52.006;8.424;2022-12-05T08:29:04;6.72;;;3.75;;
76063;SDS011;64762;52.006;8.424;2022-12-05T08:31:32;6.43;;;3.78;;
76063;SDS011;64762;52.006;8.424;2022-12-05T08:33:59;7.20;;;3.78;;
76063;SDS011;64762;52.006;8.424;2022-12-05T08:36:25;5.82;;;3.53;;
76063;SDS011;64762;52.006;8.424;2022-12-05T08:38:55;7.03;;;3.72;;
76063;SDS011;64762;52.006;8.424;2022-12-05T08:41:21;7.45;;;4.15;;
76063;SDS011;64762;52.006;8.424;2022-12-05T08:43:46;6.90;;;3.58;;
76063;SDS011;64762;52.006;8.424;2022-12-05T09:10:50;6.90;;;4.65;;
76063;SDS011;64762;52.006;8.424;2022-12-05T09:13:16;7.43;;;4.10;;
76063;SDS011;64762;52.006;8.424;2022-12-05T09:15:41;7.27;;;3.97;;
76063;SDS011;64762;52.006;8.424;2022-12-05T09:18:06;7.20;;;4.10;;
76063;SDS011;64762;52.006;8.424;2022-12-05T09:20:32;7.75;;;4.32;;
76063;SDS011;64762;52.006;8.424;2022-12-05T09:22:57;6.70;;;3.97;;
76063;SDS011;64762;52.006;8.424;2022-12-05T09:25:22;6.70;;;3.87;;
76063;SDS011;64762;52.006;8.424;2022-12-05T09:27:48;7.47;;;3.90;;
76063;SDS011;64762;52.006;8.424;2022-12-05T09:30:13;7.00;;;3.87;;
76063;SDS011;64762;52.006;8.424;2022-12-05T09:32:39;7.78;;;4.45;;
76063;SDS011;64762;52.006;8.424;2022-12-05T09:35:04;7.55;;;4.10;;
76063;SDS011;64762;52.006;8.424;2022-12-05T09:37:30;8.10;;;3.80;;
76063;SDS011;64762;52.006;8.424;2022-12-05T09:39:55;7.40;;;4.47;;
76063;SDS011;64762;52.006;8.424;2022-12-05T09:42:35;7.03;;;3.95;;
76063;SDS011;64762;52.006;8.424;2022-12-05T09:45:07;6.55;;;4.00;;
76063;SDS011;64762;52.006;8.424;2022-12-05T09:50:25;8.32;;;4.00;;
76063;SDS011;64762;52.006;8.424;2022-12-05T09:58:50;7.68;;;4.30;;
76063;SDS011;64762;52.006;8.424;2022-12-05T10:04:23;7.63;;;3.80;;
76063;SDS011;64762;52.006;8.424;2022-12-05T10:12:52;6.20;;;3.83;;
76063;SDS011;64762;52.006;8.424;2022-12-05T10:15:40;6.72;;;4.25;;
76063;SDS011;64762;52.006;8.424;2022-12-05T10:23:48;9.10;;;5.13;;
76063;SDS011;64762;52.006;8.424;2022-12-05T10:26:18;9.50;;;5.22;;
76063;SDS011;64762;52.006;8.424;2022-12-05T10:31:30;7.97;;;4.68;;
76063;SDS011;64762;52.006;8.424;2022-12-05T10:34:39;7.50;;;4.68;;
76063;SDS011;64762;52.006;8.424;2022-12-05T10:37:15;10.52;;;5.50;;
76063;SDS011;64762;52.006;8.424;2022-12-05T10:39:43;10.70;;;6.30;;
76063;SDS011;64762;52.006;8.424;2022-12-05T10:42:16;9.13;;;4.68;;
76063;SDS011;64762;52.006;8.424;2022-12-05T10:44:55;9.52;;;5.22;;
76063;SDS011;64762;52.006;8.424;2022-12-05T10:47:22;9.18;;;4.85;;
76063;SDS011;64762;52.006;8.424;2022-12-05T10:49:48;8.20;;;4.77;;
76063;SDS011;64762;52.006;8.424;2022-12-05T10:52:13;7.85;;;5.10;;
76063;SDS011;64762;52.006;8.424;2022-12-05T10:54:42;8.95;;;4.75;;
76063;SDS011;64762;52.006;8.424;2022-12-05T10:57:20;11.10;;;6.18;;
76063;SDS011;64762;52.006;8.424;2022-12-05T10:59:50;8.40;;;4.93;;
76063;SDS011;64762;52.006;8.424;2022-12-05T11:02:24;24.55;;;14.13;;
76063;SDS011;64762;52.006;8.424;2022-12-05T11:04:50;22.58;;;12.52;;
76063;SDS011;64762;52.006;8.424;2022-12-05T11:09:55;12.95;;;7.40;;
76063;SDS011;64762;52.006;8.424;2022-12-05T11:12:22;12.93;;;6.60;;
76063;SDS011;64762;52.006;8.424;2022-12-05T11:17:46;8.32;;;4.85;;
76063;SDS011;64762;52.006;8.424;2022-12-05T11:22:41;7.68;;;4.88;;
76063;SDS011;64762;52.006;8.424;2022-12-05T11:30:58;6.78;;;4.40;;
76063;SDS011;64762;52.006;8.424;2022-12-05T11:33:29;8.02;;;4.40;;
76063;SDS011;64762;52.006;8.424;2022-12-05T11:36:19;7.82;;;4.05;;
76063;SDS011;64762;52.006;8.424;2022-12-05T11:38:44;7.15;;;4.65;;
76063;SDS011;64762;52.006;8.424;2022-12-05T11:55:47;9.00;;;5.35;;
76063;SDS011;64762;52.006;8.424;2022-12-05T12:01:10;10.35;;;5.47;;
76063;SDS011;64762;52.006;8.424;2022-12-05T12:03:56;7.55;;;5.13;;
76063;SDS011;64762;52.006;8.424;2022-12-05T12:06:32;11.73;;;6.97;;
76063;SDS011;64762;52.006;8.424;2022-12-05T12:14:58;8.10;;;4.95;;
76063;SDS011;64762;52.006;8.424;2022-12-05T12:20:15;7.20;;;4.22;;
76063;SDS011;64762;52.006;8.424;2022-12-05T12:25:24;6.80;;;3.90;;
76063;SDS011;64762;52.006;8.424;2022-12-05T12:35:55;6.80;;;3.88;;
76063;SDS011;64762;52.006;8.424;2022-12-05T12:46:37;6.20;;;3.90;;
76063;SDS011;64762;52.006;8.424;2022-12-05T12:52:03;6.28;;;3.55;;
76063;SDS011;64762;52.006;8.424;2022-12-05T13:00:37;6.18;;;3.58;;
76063;SDS011;64762;52.006;8.424;2022-12-05T13:03:15;8.45;;;3.80;;
76063;SDS011;64762;52.006;8.424;2022-12-05T13:05:51;6.82;;;4.28;;
76063;SDS011;64762;52.006;8.424;2022-12-05T13:08:26;7.82;;;3.97;;
76063;SDS011;64762;52.006;8.424;2022-12-05T13:11:02;7.82;;;3.38;;
76063;SDS011;64762;52.006;8.424;2022-12-05T13:13:35;8.82;;;3.92;;
76063;SDS011;64762;52.006;8.424;2022-12-05T13:16:05;9.82;;;3.90;;
76063;SDS011;64762;52.006;8.424;2022-12-05T13:18:32;10.20;;;4.22;;
76063;SDS011;64762;52.006;8.424;2022-12-05T13:21:04;6.45;;;3.88;;
76063;SDS011;64762;52.006;8.424;2022-12-05T13:23:32;7.82;;;4.05;;
76063;SDS011;64762;52.006;8.424;2022-12-05T13:26:00;7.65;;;3.95;;
76063;SDS011;64762;52.006;8.424;2022-12-05T13:28:33;7.47;;;4.40;;
76063;SDS011;64762;52.006;8.424;2022-12-05T13:31:06;7.30;;;3.85;;
76063;SDS011;64762;52.006;8.424;2022-12-05T13:36:13;10.27;;;5.57;;
76063;SDS011;64762;52.006;8.424;2022-12-05T13:39:17;15.40;;;7.95;;
76063;SDS011;64762;52.006;8.424;2022-12-05T13:42:03;14.32;;;8.35;;
76063;SDS011;64762;52.006;8.424;2022-12-05T13:44:49;11.23;;;7.85;;
76063;SDS011;64762;52.006;8.424;2022-12-05T13:47:19;14.23;;;8.50;;
76063;SDS011;64762;52.006;8.424;2022-12-05T13:52:32;11.05;;;6.95;;
76063;SDS011;64762;52.006;8.424;2022-12-05T13:57:46;12.23;;;7.40;;
76063;SDS011;64762;52.006;8.424;2022-12-05T14:07:39;10.50;;;5.47;;
76063;SDS011;64762;52.006;8.424;2022-12-05T14:10:05;13.13;;;8.43;;
76063;SDS011;64762;52.006;8.424;2022-12-05T14:12:51;8.95;;;5.70;;
76063;SDS011;64762;52.006;8.424;2022-12-05T14:15:33;8.82;;;5.28;;
76063;SDS011;64762;52.006;8.424;2022-12-05T14:20:34;8.43;;;5.32;;
76063;SDS011;64762;52.006;8.424;2022-12-05T14:28:52;8.55;;;4.78;;
76063;SDS011;64762;52.006;8.424;2022-12-05T14:42:00;7.10;;;4.47;;
76063;SDS011;64762;52.006;8.424;2022-12-05T14:44:27;6.75;;;4.35;;
76063;SDS011;64762;52.006;8.424;2022-12-05T14:46:56;9.52;;;5.50;;
76063;SDS011;64762;52.006;8.424;2022-12-05T14:49:34;9.55;;;5.45;;
76063;SDS011;64762;52.006;8.424;2022-12-05T14:52:18;9.52;;;6.18;;
76063;SDS011;64762;52.006;8.424;2022-12-05T14:54:46;8.32;;;5.75;;
76063;SDS011;64762;52.006;8.424;2022-12-05T14:57:12;7.78;;;5.07;;
76063;SDS011;64762;52.006;8.424;2022-12-05T14:59:44;9.20;;;5.57;;
76063;SDS011;64762;52.006;8.424;2022-12-05T15:02:16;8.35;;;5.57;;
76063;SDS011;64762;52.006;8.424;2022-12-05T15:04:51;6.93;;;4.45;;
76063;SDS011;64762;52.006;8.424;2022-12-05T15:07:30;6.10;;;4.00;;
76063;SDS011;64762;52.006;8.424;2022-12-05T15:15:30;7.05;;;4.45;;
76063;SDS011;64762;52.006;8.424;2022-12-05T15:18:00;8.45;;;6.35;;
76063;SDS011;64762;52.006;8.424;2022-12-05T15:20:33;8.88;;;6.28;;
76063;SDS011;64762;52.006;8.424;2022-12-05T15:23:28;9.20;;;5.85;;
76063;SDS011;64762;52.006;8.424;2022-12-05T15:26:25;13.50;;;9.43;;
76063;SDS011;64762;52.006;8.424;2022-12-05T15:28:58;14.38;;;10.07;;
76063;SDS011;64762;52.006;8.424;2022-12-05T15:39:23;12.88;;;8.38;;
76063;SDS011;64762;52.006;8.424;2022-12-05T15:41:52;9.73;;;6.18;;
76063;SDS011;64762;52.006;8.424;2022-12-05T15:44:19;7.95;;;5.40;;
76063;SDS011;64762;52.006;8.424;2022-12-05T15:46:50;10.48;;;6.20;;
76063;SDS011;64762;52.006;8.424;2022-12-05T15:49:20;7.78;;;5.15;;
76063;SDS011;64762;52.006;8.424;2022-12-05T15:51:48;7.38;;;4.88;;
76063;SDS011;64762;52.006;8.424;2022-12-05T15:54:21;10.73;;;6.40;;
76063;SDS011;64762;52.006;8.424;2022-12-05T15:56:53;9.45;;;5.57;;
76063;SDS011;64762;52.006;8.424;2022-12-05T15:59:25;8.82;;;5.32;;
76063;SDS011;64762;52.006;8.424;2022-12-05T16:01:58;8.40;;;4.40;;
76063;SDS011;64762;52.006;8.424;2022-12-05T16:04:45;9.45;;;5.30;;
76063;SDS011;64762;52.006;8.424;2022-12-05T16:07:15;8.70;;;5.07;;
76063;SDS011;64762;52.006;8.424;2022-12-05T16:09:41;8.18;;;4.88;;
76063;SDS011;64762;52.006;8.424;2022-12-05T16:12:18;11.70;;;4.63;;
76063;SDS011;64762;52.006;8.424;2022-12-05T16:14:48;7.47;;;4.40;;
76063;SDS011;64762;52.006;8.424;2022-12-05T16:17:15;8.18;;;5.07;;
76063;SDS011;64762;52.006;8.424;2022-12-05T16:19:41;8.07;;;4.43;;
76063;SDS011;64762;52.006;8.424;2022-12-05T16:24:42;8.68;;;4.90;;
76063;SDS011;64762;52.006;8.424;2022-12-05T16:27:19;8.68;;;4.80;;
76063;SDS011;64762;52.006;8.424;2022-12-05T16:30:04;9.18;;;4.93;;
76063;SDS011;64762;52.006;8.424;2022-12-05T16:32:31;8.23;;;4.55;;
76063;SDS011;64762;52.006;8.424;2022-12-05T16:34:58;8.60;;;5.15;;
76063;SDS011;64762;52.006;8.424;2022-12-05T16:37:25;11.63;;;5.07;;
76063;SDS011;64762;52.006;8.424;2022-12-05T16:39:51;9.00;;;4.88;;
76063;SDS011;64762;52.006;8.424;2022-12-05T16:42:23;10.48;;;4.80;;
76063;SDS011;64762;52.006;8.424;2022-12-05T16:44:57;9.38;;;4.60;;
76063;SDS011;64762;52.006;8.424;2022-12-05T16:53:01;8.60;;;4.97;;
76063;SDS011;64762;52.006;8.424;2022-12-05T16:55:32;12.00;;;5.50;;
76063;SDS011;64762;52.006;8.424;2022-12-05T16:58:01;8.80;;;5.90;;
76063;SDS011;64762;52.006;8.424;2022-12-05T17:00:27;10.10;;;5.25;;
76063;SDS011;64762;52.006;8.424;2022-12-05T17:02:54;11.25;;;5.57;;
76063;SDS011;64762;52.006;8.424;2022-12-05T17:05:19;12.07;;;5.77;;
76063;SDS011;64762;52.006;8.424;2022-12-05T17:07:45;11.57;;;5.40;;
76063;SDS011;64762;52.006;8.424;2022-12-05T17:10:10;11.57;;;5.20;;
76063;SDS011;64762;52.006;8.424;2022-12-05T17:12:35;10.87;;;5.20;;
76063;SDS011;64762;52.006;8.424;2022-12-05T17:15:00;12.47;;;5.37;;
76063;SDS011;64762;52.006;8.424;2022-12-05T17:17:26;13.40;;;5.77;;
76063;SDS011;64762;52.006;8.424;2022-12-05T17:19:51;11.87;;;6.30;;
76063;SDS011;64762;52.006;8.424;2022-12-05T17:22:16;16.60;;;8.43;;
76063;SDS011;64762;52.006;8.424;2022-12-05T17:24:42;14.87;;;5.93;;
76063;SDS011;64762;52.006;8.424;2022-12-05T17:27:08;15.57;;;7.13;;
76063;SDS011;64762;52.006;8.424;2022-12-05T17:29:35;14.43;;;5.88;;
76063;SDS011;64762;52.006;8.424;2022-12-05T17:32:00;12.17;;;5.37;;
76063;SDS011;64762;52.006;8.424;2022-12-05T17:34:26;10.47;;;5.10;;
76063;SDS011;64762;52.006;8.424;2022-12-05T17:36:51;14.43;;;5.07;;
76063;SDS011;64762;52.006;8.424;2022-12-05T17:39:16;13.43;;;5.57;;
76063;SDS011;64762;52.006;8.424;2022-12-05T17:41:42;12.27;;;6.00;;
76063;SDS011;64762;52.006;8.424;2022-12-05T17:44:08;17.10;;;7.60;;
76063;SDS011;64762;52.006;8.424;2022-12-05T17:46:37;13.27;;;6.50;;
76063;SDS011;64762;52.006;8.424;2022-12-05T17:49:02;16.83;;;5.13;;
76063;SDS011;64762;52.006;8.424;2022-12-05T17:51:28;10.65;;;5.38;;
76063;SDS011;64762;52.006;8.424;2022-12-05T17:53:54;9.52;;;4.80;;
76063;SDS011;64762;52.006;8.424;2022-12-05T17:56:20;10.63;;;5.35;;
76063;SDS011;64762;52.006;8.424;2022-12-05T17:58:45;9.00;;;4.50;;
76063;SDS011;64762;52.006;8.424;2022-12-05T18:01:15;7.37;;;4.43;;
76063;SDS011;64762;52.006;8.424;2022-12-05T18:03:41;7.88;;;4.80;;
76063;SDS011;64762;52.006;8.424;2022-12-05T18:06:07;8.53;;;5.07;;
76063;SDS011;64762;52.006;8.424;2022-12-05T18:08:32;9.93;;;5.40;;
76063;SDS011;64762;52.006;8.424;2022-12-05T18:10:58;8.00;;;4.97;;
76063;SDS011;64762;52.006;8.424;2022-12-05T18:13:23;10.70;;;5.90;;
76063;SDS011;64762;52.006;8.424;2022-12-05T18:15:54;9.10;;;5.40;;
76063;SDS011;64762;52.006;8.424;2022-12-05T18:18:20;9.95;;;5.53;;
76063;SDS011;64762;52.006;8.424;2022-12-05T18:20:45;11.17;;;5.27;;
76063;SDS011;64762;52.006;8.424;2022-12-05T18:23:10;9.37;;;5.17;;